Airport View

Enter AWOS ICAO identifier for current METAR.

ex. KFNL

KUOX 262125Z AUTO 32014G24KT 300V360 10SM BKN031 OVC036 04/M03 A3019 RMK AO2

26 Feb 2020 21:27

Frequency: 132.725

Phone: 662-234-9751

Other Area AWOS: KPMU - KOLV - KTUP - KUTA

TAF AMD KTUP 261957Z 2620/2718 34011G18KT P6SM OVC040 FM270000 34008KT P6SM BKN035 FM270600 35005KT P6SM SKC FM271500 32007KT P6SM SKC